Terminal Aerodrome Forecast
Issued by NWS

Home | Current Version | Previous Version | Graphics & Text | Print | Product List | Glossary On
Versions: 1 2 3 4 5 6 7 8 9 10 11 12 13 14 15 16 17 18 19 20 21
951
FTUS43 KBIS 150539
TAFDIK
TAF
KDIK 150539Z 1506/1606 30015KT P6SM -SN OVC012
      TEMPO 1506/1509 OVC008
     FM150900 36017G24KT 3SM -SN BLSN OVC008
     FM151200 01020G27KT 2SM -SN OVC010
     FM151500 35018G24KT 1 1/2SM -SN BLSN OVC020
     FM151700 34015KT P6SM BKN035 OVC060
     FM160400 27012G20KT P6SM FEW250=

USA.gov is the U.S. government's official web portal to all federal, state and local government web resources and services.